Time;durP1;ratioP1;P1;durP2;ratioP2;P2;SDS_P1;SDS_P2;PMS_P1;PMS_P2;Temp;Humidity;BMP_temperature;BMP_pressure;BME280_temperature;BME280_humidity;BME280_pressure;Samples;Min_cycle;Max_cycle;Signal;HPM_P1;HPM_P2
2023/05/31 00:02:22;;;;;;;11.87;7.43;;;11.40;99.90;;;;;;5102456;27;20597;-79
2023/05/31 00:04:48;;;;;;;14.93;8.00;;;11.50;99.90;;;;;;5102436;28;20197;-78
2023/05/31 00:07:15;;;;;;;14.60;7.47;;;11.40;99.90;;;;;;5111986;27;20200;-77
2023/05/31 00:09:43;;;;;;;14.93;8.20;;;11.50;99.90;;;;;;5109576;27;20209;-78
2023/05/31 00:12:10;;;;;;;12.17;7.40;;;11.60;99.90;;;;;;5106661;27;20224;-78
2023/05/31 00:14:37;;;;;;;14.33;7.43;;;11.60;99.90;;;;;;5106350;27;20206;-78
2023/05/31 00:17:04;;;;;;;13.53;7.87;;;11.60;99.90;;;;;;5112467;28;20207;-78
2023/05/31 00:19:31;;;;;;;15.97;8.40;;;11.50;99.90;;;;;;5102289;27;20207;-78
2023/05/31 00:21:58;;;;;;;13.83;8.17;;;11.20;99.90;;;;;;5102658;27;20221;-77
2023/05/31 00:24:25;;;;;;;14.07;7.90;;;11.00;99.90;;;;;;5101400;28;20658;-77
2023/05/31 00:26:53;;;;;;;14.17;7.80;;;11.20;99.90;;;;;;5106900;27;20208;-78
2023/05/31 00:29:20;;;;;;;12.37;8.23;;;11.10;99.90;;;;;;5105447;27;20653;-78
2023/05/31 00:31:46;;;;;;;14.43;8.07;;;11.40;99.90;;;;;;5101644;27;20225;-78
2023/05/31 00:34:13;;;;;;;15.50;8.80;;;11.40;99.90;;;;;;5098542;27;20198;-78
2023/05/31 00:36:40;;;;;;;15.37;8.57;;;11.20;99.90;;;;;;5101421;27;20209;-78
2023/05/31 00:39:07;;;;;;;14.57;8.27;;;11.00;99.90;;;;;;5102243;28;20202;-78
2023/05/31 00:41:33;;;;;;;15.73;9.57;;;10.80;99.90;;;;;;5108753;27;20240;-78
2023/05/31 00:44:02;;;;;;;15.73;8.60;;;10.80;99.90;;;;;;5101259;27;20224;-78
2023/05/31 00:46:35;;;;;;;12.27;7.37;;;10.70;99.90;;;;;;5102868;27;20211;-78
2023/05/31 00:49:03;;;;;;;16.70;8.40;;;10.60;99.90;;;;;;5098467;27;20219;-77
2023/05/31 00:51:32;;;;;;;14.40;8.20;;;10.80;99.90;;;;;;5101287;27;20205;-78
2023/05/31 00:54:00;;;;;;;15.10;8.03;;;10.90;99.90;;;;;;5102907;27;20216;-79
2023/05/31 00:56:28;;;;;;;16.27;8.60;;;11.10;99.90;;;;;;5108708;27;20209;-78
2023/05/31 00:58:56;;;;;;;16.10;8.40;;;11.00;99.90;;;;;;5107335;27;20207;-77
2023/05/31 01:01:27;;;;;;;13.43;7.57;;;10.80;99.90;;;;;;5108275;27;20205;-77
2023/05/31 01:03:55;;;;;;;15.00;8.90;;;10.80;99.90;;;;;;5101084;27;20213;-77
2023/05/31 01:06:23;;;;;;;15.23;8.33;;;10.70;99.90;;;;;;5106336;27;20768;-77
2023/05/31 01:08:50;;;;;;;15.93;8.70;;;10.70;99.90;;;;;;5101204;27;20213;-78
2023/05/31 01:11:27;;;;;;;15.33;7.80;;;10.60;99.90;;;;;;5105335;28;20209;-78
2023/05/31 01:14:02;;;;;;;16.77;9.00;;;10.40;99.90;;;;;;5107334;27;20217;-77
2023/05/31 01:16:36;;;;;;;17.97;8.23;;;10.50;99.90;;;;;;5103472;27;20261;-77
2023/05/31 01:19:07;;;;;;;15.57;8.77;;;10.40;99.90;;;;;;5100573;28;20236;-77
2023/05/31 01:21:46;;;;;;;15.40;8.17;;;10.40;99.90;;;;;;5102624;27;20206;-78
2023/05/31 01:24:26;;;;;;;18.50;8.20;;;10.30;99.90;;;;;;5100770;28;20251;-77
2023/05/31 01:27:00;;;;;;;16.30;8.67;;;10.30;99.90;;;;;;5100267;27;20212;-77
2023/05/31 01:29:28;;;;;;;16.03;8.40;;;10.30;99.90;;;;;;5106671;27;20209;-77
2023/05/31 01:31:58;;;;;;;14.53;7.47;;;10.30;99.90;;;;;;5100669;27;20197;-77
2023/05/31 01:34:25;;;;;;;12.80;7.30;;;10.20;99.90;;;;;;5108243;28;20212;-77
2023/05/31 01:36:51;;;;;;;14.83;8.23;;;10.40;99.90;;;;;;5107082;27;20216;-78
2023/05/31 01:39:20;;;;;;;13.77;8.37;;;10.20;99.90;;;;;;5110002;27;20299;-77
2023/05/31 01:41:48;;;;;;;15.17;8.67;;;10.30;99.90;;;;;;5109287;27;20197;-78
2023/05/31 01:44:18;;;;;;;17.17;9.70;;;10.30;99.90;;;;;;5098453;27;20198;-79
2023/05/31 01:46:46;;;;;;;15.27;9.10;;;10.30;99.90;;;;;;5100090;27;20205;-78
2023/05/31 01:49:14;;;;;;;15.43;8.67;;;10.20;99.90;;;;;;5112769;27;20653;-77
2023/05/31 01:51:43;;;;;;;14.83;8.07;;;10.10;99.90;;;;;;5119420;28;20208;-78
2023/05/31 01:54:10;;;;;;;15.10;8.50;;;10.20;99.90;;;;;;5113824;28;20265;-79
2023/05/31 01:56:38;;;;;;;19.37;8.27;;;10.30;99.90;;;;;;5113147;28;20205;-77
2023/05/31 01:59:06;;;;;;;16.87;8.93;;;10.30;99.90;;;;;;5121253;28;20217;-78
2023/05/31 02:01:36;;;;;;;14.33;8.13;;;10.20;99.90;;;;;;5117493;28;20269;-78
2023/05/31 02:04:03;;;;;;;17.13;8.50;;;10.10;99.90;;;;;;5124088;28;20269;-79
2023/05/31 02:06:31;;;;;;;16.37;9.20;;;10.10;99.90;;;;;;5123000;28;20561;-79
2023/05/31 02:08:58;;;;;;;14.20;8.60;;;10.10;99.90;;;;;;5118209;28;20569;-78
2023/05/31 02:11:25;;;;;;;14.73;8.80;;;10.10;99.90;;;;;;5122909;28;20208;-78
2023/05/31 02:13:52;;;;;;;15.20;8.20;;;10.00;99.90;;;;;;5125158;28;20212;-78
2023/05/31 02:16:19;;;;;;;14.47;8.30;;;10.00;99.90;;;;;;5126738;28;20205;-78
2023/05/31 02:18:47;;;;;;;14.43;8.23;;;10.00;99.90;;;;;;5123370;28;20213;-78
2023/05/31 02:21:14;;;;;;;15.00;9.17;;;10.00;99.90;;;;;;5126883;28;20197;-78
2023/05/31 02:23:42;;;;;;;15.47;9.07;;;9.90;99.90;;;;;;5116424;28;20230;-79
2023/05/31 02:26:09;;;;;;;15.13;8.47;;;10.00;99.90;;;;;;5125709;28;20197;-79
2023/05/31 02:28:36;;;;;;;14.20;8.33;;;9.90;99.90;;;;;;5130461;28;20232;-78
2023/05/31 02:31:03;;;;;;;15.70;8.37;;;9.80;99.90;;;;;;5127821;28;20201;-78
2023/05/31 02:33:30;;;;;;;19.00;8.87;;;9.70;99.90;;;;;;5131715;28;20263;-77
2023/05/31 02:35:58;;;;;;;13.53;8.30;;;9.80;99.90;;;;;;5120302;28;20204;-78
2023/05/31 02:38:26;;;;;;;17.40;8.53;;;9.70;99.90;;;;;;5123482;28;20205;-78
2023/05/31 02:40:53;;;;;;;15.97;9.70;;;9.90;99.90;;;;;;5131360;28;20204;-79
2023/05/31 02:43:20;;;;;;;16.43;9.20;;;9.80;99.90;;;;;;5128331;28;20228;-80
2023/05/31 02:45:47;;;;;;;16.10;8.47;;;9.90;99.90;;;;;;5132343;28;20279;-78
2023/05/31 02:48:14;;;;;;;16.27;9.47;;;10.10;99.90;;;;;;5127282;28;20707;-77
2023/05/31 02:50:41;;;;;;;15.87;9.00;;;9.90;99.90;;;;;;5133179;28;20323;-78
2023/05/31 02:53:09;;;;;;;15.83;8.97;;;9.80;99.90;;;;;;5128319;27;20225;-77
2023/05/31 02:55:37;;;;;;;16.30;9.27;;;9.80;99.90;;;;;;5129731;28;20223;-77
2023/05/31 02:58:04;;;;;;;16.23;8.97;;;9.70;99.90;;;;;;5126930;27;20567;-77
2023/05/31 03:00:31;;;;;;;17.77;8.60;;;9.70;99.90;;;;;;5137211;27;20197;-77
2023/05/31 03:02:58;;;;;;;13.77;8.67;;;9.70;99.90;;;;;;5128762;27;20221;-78
2023/05/31 03:05:26;;;;;;;14.57;8.57;;;9.60;99.90;;;;;;5128054;27;20264;-79
2023/05/31 03:07:52;;;;;;;14.47;9.30;;;9.50;99.90;;;;;;5125307;27;20204;-77
2023/05/31 03:10:21;;;;;;;17.20;9.20;;;9.70;99.90;;;;;;5121806;28;20216;-78
2023/05/31 03:12:48;;;;;;;17.10;8.80;;;9.80;99.90;;;;;;5123677;27;20223;-77
2023/05/31 03:15:14;;;;;;;16.67;9.07;;;9.60;99.90;;;;;;5124678;27;20563;-77
2023/05/31 03:17:41;;;;;;;15.27;8.47;;;9.70;99.90;;;;;;5130452;27;20200;-78
2023/05/31 03:20:09;;;;;;;16.10;8.43;;;9.80;99.90;;;;;;5131955;27;20224;-78
2023/05/31 03:22:36;;;;;;;15.43;8.20;;;9.70;99.90;;;;;;5128730;28;20217;-77
2023/05/31 03:25:04;;;;;;;15.67;8.60;;;9.70;99.90;;;;;;5129412;27;20269;-78
2023/05/31 03:27:32;;;;;;;16.23;9.83;;;9.60;99.90;;;;;;5125076;28;20257;-79
2023/05/31 03:29:59;;;;;;;14.50;8.23;;;9.60;99.90;;;;;;5116296;28;20200;-78
2023/05/31 03:32:26;;;;;;;19.43;11.23;;;9.60;99.90;;;;;;5127991;27;20250;-78
2023/05/31 03:34:53;;;;;;;15.43;8.13;;;9.60;99.90;;;;;;5129986;27;20295;-78
2023/05/31 03:37:20;;;;;;;14.53;8.30;;;9.50;99.90;;;;;;5128479;27;20266;-78
2023/05/31 03:39:47;;;;;;;17.10;9.70;;;9.50;99.90;;;;;;5126619;27;20275;-78
2023/05/31 03:42:14;;;;;;;13.80;8.40;;;9.60;99.90;;;;;;5135388;27;20323;-78
2023/05/31 03:44:43;;;;;;;16.87;9.30;;;9.80;99.90;;;;;;5133204;27;20216;-77
2023/05/31 03:47:10;;;;;;;18.43;9.50;;;9.80;99.90;;;;;;5131922;27;20208;-78
2023/05/31 03:49:37;;;;;;;17.70;9.40;;;9.90;99.90;;;;;;5130319;27;20205;-77
2023/05/31 03:52:04;;;;;;;17.10;9.87;;;9.90;99.90;;;;;;5126945;27;20208;-78
2023/05/31 03:54:31;;;;;;;16.63;8.83;;;9.90;99.90;;;;;;5124368;27;20193;-78
2023/05/31 03:56:58;;;;;;;18.23;9.67;;;9.80;99.90;;;;;;5123878;27;20203;-79
2023/05/31 03:59:25;;;;;;;19.60;10.20;;;9.80;99.90;;;;;;5121746;27;20197;-79
2023/05/31 04:01:53;;;;;;;19.10;9.97;;;10.00;99.90;;;;;;5118707;27;20276;-79
2023/05/31 04:04:20;;;;;;;16.87;9.10;;;10.10;99.90;;;;;;5119471;28;20213;-76
2023/05/31 04:06:47;;;;;;;16.67;9.20;;;10.40;99.90;;;;;;5119054;28;20201;-78
2023/05/31 04:09:13;;;;;;;15.60;8.70;;;10.40;99.90;;;;;;5117933;27;20197;-78
2023/05/31 04:11:40;;;;;;;17.50;9.63;;;10.60;99.90;;;;;;5117670;27;20223;-77
2023/05/31 04:14:07;;;;;;;18.13;9.67;;;10.70;99.90;;;;;;5119809;27;20227;-79
2023/05/31 04:16:34;;;;;;;21.50;9.20;;;11.50;99.90;;;;;;5117232;28;20203;-80
2023/05/31 04:19:02;;;;;;;15.67;8.73;;;12.70;99.90;;;;;;5117715;28;20192;-79
2023/05/31 04:21:29;;;;;;;15.63;8.90;;;13.80;99.90;;;;;;5128250;27;20212;-79
2023/05/31 04:23:56;;;;;;;13.37;8.23;;;14.60;99.90;;;;;;5118571;27;20224;-78
2023/05/31 04:26:23;;;;;;;15.30;8.83;;;14.60;99.90;;;;;;5120371;28;20205;-78
2023/05/31 04:28:51;;;;;;;13.17;7.63;;;13.80;99.90;;;;;;5117082;27;20207;-78
2023/05/31 04:31:18;;;;;;;14.60;8.30;;;13.10;99.90;;;;;;5116970;28;20201;-77
2023/05/31 04:33:45;;;;;;;13.53;8.40;;;12.10;99.90;;;;;;5117902;27;20224;-78
2023/05/31 04:36:14;;;;;;;14.67;8.80;;;11.90;99.90;;;;;;5118842;28;20207;-77
2023/05/31 04:38:41;;;;;;;13.83;8.23;;;11.50;99.90;;;;;;5117142;27;20644;-76
2023/05/31 04:41:08;;;;;;;15.43;8.43;;;11.70;99.90;;;;;;5113825;27;20300;-77
2023/05/31 04:43:35;;;;;;;15.73;9.73;;;11.70;99.90;;;;;;5114866;28;20228;-76
2023/05/31 04:46:02;;;;;;;16.80;9.00;;;11.80;99.90;;;;;;5118694;27;20279;-75
2023/05/31 04:48:28;;;;;;;15.17;8.73;;;11.80;99.90;;;;;;5117570;27;20204;-77
2023/05/31 04:50:56;;;;;;;15.83;9.03;;;11.60;99.90;;;;;;5116794;27;20209;-75
2023/05/31 04:53:24;;;;;;;16.40;9.20;;;11.50;99.90;;;;;;5117121;28;20253;-77
2023/05/31 04:55:51;;;;;;;17.10;9.57;;;11.50;99.90;;;;;;5120197;27;20201;-77
2023/05/31 04:58:20;;;;;;;13.93;8.20;;;11.60;99.90;;;;;;5129721;27;20664;-78
2023/05/31 05:00:47;;;;;;;17.87;9.27;;;11.50;99.90;;;;;;5123574;27;20214;-79
2023/05/31 05:03:14;;;;;;;15.43;9.27;;;11.60;99.90;;;;;;5124502;27;20579;-78
2023/05/31 05:05:41;;;;;;;17.03;8.40;;;11.70;99.90;;;;;;5122458;27;20258;-78
2023/05/31 05:08:09;;;;;;;17.07;9.00;;;11.90;99.90;;;;;;5114672;28;20197;-76
2023/05/31 05:10:37;;;;;;;14.60;8.50;;;12.00;99.90;;;;;;5112395;28;20219;-79
2023/05/31 05:13:03;;;;;;;20.57;11.17;;;11.70;99.90;;;;;;5117666;27;20221;-76
2023/05/31 05:15:30;;;;;;;15.13;8.93;;;11.90;99.90;;;;;;5119075;27;20212;-75
2023/05/31 05:17:57;;;;;;;17.13;8.63;;;12.20;99.90;;;;;;5111166;28;20203;-77
2023/05/31 05:20:24;;;;;;;16.47;8.20;;;12.90;99.90;;;;;;5112088;28;20209;-78
2023/05/31 05:22:53;;;;;;;14.97;7.97;;;13.40;99.90;;;;;;5118160;28;20237;-78
2023/05/31 05:25:22;;;;;;;11.83;6.50;;;13.20;99.90;;;;;;5121259;27;20579;-78
2023/05/31 05:27:50;;;;;;;13.90;6.70;;;13.50;99.90;;;;;;5116384;28;20254;-78
2023/05/31 05:30:18;;;;;;;13.20;7.00;;;13.60;99.90;;;;;;5113731;27;20212;-76
2023/05/31 05:32:45;;;;;;;12.43;5.87;;;13.70;99.90;;;;;;5113700;27;20274;-78
2023/05/31 05:35:12;;;;;;;13.03;6.30;;;13.80;99.90;;;;;;5111086;28;20580;-78
2023/05/31 05:37:39;;;;;;;12.13;6.07;;;13.90;99.90;;;;;;5114492;28;20205;-78
2023/05/31 05:40:07;;;;;;;14.87;6.20;;;14.00;99.90;;;;;;5112675;28;20200;-78
2023/05/31 05:42:36;;;;;;;14.87;6.47;;;14.30;99.90;;;;;;5116714;28;20256;-75
2023/05/31 05:45:06;;;;;;;12.57;6.13;;;14.90;99.90;;;;;;5116292;28;20217;-76
2023/05/31 05:47:33;;;;;;;9.43;5.93;;;16.90;99.90;;;;;;5117096;27;20201;-77
2023/05/31 05:50:01;;;;;;;15.63;5.90;;;17.70;99.90;;;;;;5115174;28;20215;-77
2023/05/31 05:52:28;;;;;;;14.73;5.95;;;18.60;99.90;;;;;;5117977;27;20941;-78
2023/05/31 05:54:55;;;;;;;14.85;6.32;;;17.20;99.90;;;;;;5100141;28;20295;-81
2023/05/31 05:57:21;;;;;;;11.23;6.00;;;15.70;99.90;;;;;;5115132;28;20665;-78
2023/05/31 05:59:49;;;;;;;13.30;5.70;;;14.80;99.90;;;;;;5114992;27;20196;-76
2023/05/31 06:02:20;;;;;;;15.00;5.93;;;14.10;99.90;;;;;;5116242;28;20217;-77
2023/05/31 06:04:47;;;;;;;14.70;6.25;;;14.30;99.90;;;;;;5116294;27;20213;-75
2023/05/31 06:07:14;;;;;;;13.45;6.35;;;14.40;99.90;;;;;;5116418;28;20805;-77
2023/05/31 06:09:42;;;;;;;13.45;6.38;;;14.50;99.90;;;;;;5123605;27;20197;-77
2023/05/31 06:12:09;;;;;;;13.10;5.68;;;14.60;99.90;;;;;;5116417;28;20232;-79
2023/05/31 06:14:36;;;;;;;10.23;5.70;;;14.60;99.90;;;;;;5116632;27;20526;-75
2023/05/31 06:17:03;;;;;;;20.52;6.30;;;14.50;99.90;;;;;;5113038;28;20203;-74
2023/05/31 06:19:31;;;;;;;15.38;6.82;;;14.70;99.90;;;;;;5115359;28;20201;-75
2023/05/31 06:21:58;;;;;;;13.98;5.90;;;14.60;99.90;;;;;;5114490;28;20201;-77
2023/05/31 06:24:25;;;;;;;10.82;5.80;;;14.70;99.90;;;;;;5114577;28;20580;-76
2023/05/31 06:26:51;;;;;;;14.48;5.47;;;14.80;99.90;;;;;;5113347;28;20215;-77
2023/05/31 06:29:18;;;;;;;11.10;5.97;;;14.60;99.90;;;;;;5116684;28;20203;-79
2023/05/31 06:31:45;;;;;;;16.77;6.38;;;14.50;99.90;;;;;;5118851;28;20209;-79
2023/05/31 06:34:12;;;;;;;16.45;6.03;;;14.60;99.90;;;;;;5117260;28;20189;-78
2023/05/31 06:36:41;;;;;;;13.77;6.10;;;14.70;99.90;;;;;;5118394;28;22258;-79
2023/05/31 06:39:09;;;;;;;11.93;5.25;;;14.60;99.90;;;;;;5113281;28;20231;-78
2023/05/31 06:41:36;;;;;;;14.80;5.85;;;14.50;99.90;;;;;;5118706;28;20228;-76
2023/05/31 06:44:03;;;;;;;11.63;5.90;;;14.50;99.90;;;;;;5117119;28;20307;-79
2023/05/31 06:46:31;;;;;;;13.80;5.45;;;14.70;99.90;;;;;;5119112;28;20260;-77
2023/05/31 06:48:58;;;;;;;11.80;5.43;;;14.80;99.90;;;;;;5111636;28;20204;-79
2023/05/31 06:51:25;;;;;;;13.50;5.15;;;14.90;99.90;;;;;;5122775;28;20734;-76
2023/05/31 06:53:53;;;;;;;10.35;5.90;;;15.10;99.90;;;;;;5113320;28;20213;-78
2023/05/31 06:56:20;;;;;;;12.15;5.43;;;14.80;99.90;;;;;;5122821;28;20201;-79
2023/05/31 06:58:48;;;;;;;20.73;6.03;;;14.80;99.90;;;;;;5118243;28;20201;-79
2023/05/31 07:01:15;;;;;;;14.70;5.53;;;15.10;99.90;;;;;;5119104;28;20264;-78
2023/05/31 07:03:42;;;;;;;15.50;5.30;;;15.00;99.90;;;;;;5119188;28;20250;-77
2023/05/31 07:06:09;;;;;;;16.75;5.68;;;15.10;99.90;;;;;;5118329;28;20675;-77
2023/05/31 07:08:36;;;;;;;15.95;5.05;;;15.40;99.90;;;;;;5119519;28;20227;-78
2023/05/31 07:11:04;;;;;;;7.93;4.82;;;15.40;99.90;;;;;;5119739;28;20219;-78
2023/05/31 07:13:31;;;;;;;9.82;4.72;;;15.50;99.90;;;;;;5113886;28;20700;-77
2023/05/31 07:15:58;;;;;;;13.50;5.45;;;15.60;99.90;;;;;;5116772;28;20288;-78
2023/05/31 07:18:25;;;;;;;11.02;4.63;;;15.30;99.90;;;;;;5116124;28;20225;-76
2023/05/31 07:20:56;;;;;;;13.82;5.18;;;15.30;99.90;;;;;;5115988;28;20197;-78
2023/05/31 07:23:23;;;;;;;8.02;4.10;;;15.60;99.90;;;;;;5116125;28;20786;-78
2023/05/31 07:25:50;;;;;;;12.10;4.68;;;15.90;99.90;;;;;;5116029;28;20227;-78
2023/05/31 07:28:18;;;;;;;7.00;4.18;;;15.80;99.90;;;;;;5117182;28;20200;-78
2023/05/31 07:30:45;;;;;;;7.43;3.75;;;15.70;99.90;;;;;;5117352;28;20207;-79
2023/05/31 07:33:12;;;;;;;11.48;4.22;;;15.70;99.90;;;;;;5119772;28;20216;-77
2023/05/31 07:35:38;;;;;;;8.15;4.72;;;15.70;99.90;;;;;;5122958;28;20197;-79
2023/05/31 07:38:06;;;;;;;8.48;4.30;;;15.70;99.90;;;;;;5116231;28;20196;-78
2023/05/31 07:40:32;;;;;;;7.93;4.10;;;16.10;99.90;;;;;;5116795;28;20201;-77
2023/05/31 07:42:59;;;;;;;10.55;4.30;;;16.30;99.90;;;;;;5122888;27;20289;-78
2023/05/31 07:45:28;;;;;;;9.63;4.00;;;16.20;99.90;;;;;;5116253;28;20213;-77
2023/05/31 07:47:56;;;;;;;8.63;4.47;;;16.20;99.90;;;;;;5126571;27;20197;-77
2023/05/31 07:50:23;;;;;;;13.32;5.28;;;16.30;99.90;;;;;;5126046;27;20583;-76
2023/05/31 07:52:51;;;;;;;9.15;4.85;;;16.40;99.90;;;;;;5124685;27;20228;-79
2023/05/31 07:55:18;;;;;;;8.10;4.47;;;16.40;99.90;;;;;;5128267;27;20224;-77
2023/05/31 07:57:45;;;;;;;7.90;4.30;;;16.10;99.90;;;;;;5119469;28;20209;-77
2023/05/31 08:00:13;;;;;;;6.93;3.72;;;16.40;99.90;;;;;;5119988;28;20676;-77
2023/05/31 08:02:42;;;;;;;7.38;4.40;;;16.30;99.90;;;;;;5120209;27;20217;-77
2023/05/31 08:05:09;;;;;;;9.40;4.53;;;16.60;99.90;;;;;;5120371;28;20225;-75
2023/05/31 08:07:36;;;;;;;9.68;4.50;;;16.80;99.90;;;;;;5120332;28;20288;-78
2023/05/31 08:10:04;;;;;;;9.13;3.67;;;17.00;99.90;;;;;;5111994;28;20206;-77
2023/05/31 08:12:30;;;;;;;12.88;4.60;;;16.90;99.90;;;;;;5115937;28;20252;-79
2023/05/31 08:14:57;;;;;;;13.90;4.78;;;16.90;99.90;;;;;;5132024;27;20193;-80
2023/05/31 08:17:24;;;;;;;9.60;3.83;;;17.10;99.90;;;;;;5119433;28;20201;-79
2023/05/31 08:19:52;;;;;;;9.45;3.60;;;17.10;99.90;;;;;;5109580;28;20193;-80
2023/05/31 08:22:19;;;;;;;6.60;3.38;;;17.10;99.90;;;;;;5130664;27;20235;-77
2023/05/31 08:24:46;;;;;;;6.90;3.50;;;17.10;99.90;;;;;;5118366;27;20227;-78
2023/05/31 08:27:13;;;;;;;10.18;3.97;;;17.40;99.90;;;;;;5120863;28;20209;-79
2023/05/31 08:29:39;;;;;;;9.95;4.00;;;17.40;99.90;;;;;;5121022;28;20209;-76
2023/05/31 08:32:06;;;;;;;9.32;3.60;;;17.50;99.90;;;;;;5120953;27;20315;-78
2023/05/31 08:34:33;;;;;;;5.97;3.80;;;17.60;99.90;;;;;;5136533;27;20198;-79
2023/05/31 08:37:01;;;;;;;10.55;3.55;;;17.80;99.90;;;;;;5122326;27;20201;-77
2023/05/31 08:39:29;;;;;;;9.38;4.68;;;17.90;99.90;;;;;;5121178;28;20193;-77
2023/05/31 08:42:01;;;;;;;6.88;3.25;;;17.80;99.90;;;;;;5121524;28;20227;-77
2023/05/31 08:44:29;;;;;;;9.15;3.40;;;17.90;99.90;;;;;;5120629;28;20663;-76
2023/05/31 08:46:59;;;;;;;5.80;3.08;;;18.00;99.90;;;;;;5120552;28;20665;-77
2023/05/31 08:49:27;;;;;;;5.65;2.80;;;18.40;99.90;;;;;;5121247;28;20211;-77
2023/05/31 08:51:56;;;;;;;6.65;3.00;;;18.70;99.90;;;;;;5119943;28;20220;-76
2023/05/31 08:54:25;;;;;;;4.82;3.13;;;18.80;99.90;;;;;;5119973;28;20197;-76
2023/05/31 08:56:52;;;;;;;6.40;3.40;;;19.20;99.90;;;;;;5120681;28;20622;-78
2023/05/31 08:59:19;;;;;;;6.55;3.05;;;19.50;99.90;;;;;;5121217;28;20200;-78
2023/05/31 09:01:47;;;;;;;10.70;2.92;;;19.90;99.90;;;;;;5120293;28;20212;-79
2023/05/31 09:04:15;;;;;;;5.38;3.08;;;20.10;99.90;;;;;;5120366;28;20201;-78
2023/05/31 09:06:42;;;;;;;5.80;2.67;;;20.00;99.90;;;;;;5119430;28;20205;-78
2023/05/31 09:09:09;;;;;;;4.45;2.30;;;20.60;99.90;;;;;;5119303;28;20205;-78
2023/05/31 09:11:40;;;;;;;7.88;3.00;;;20.40;99.90;;;;;;5119093;28;20211;-78
2023/05/31 09:14:08;;;;;;;10.73;3.53;;;20.70;99.90;;;;;;5118914;28;20248;-76
2023/05/31 09:16:35;;;;;;;6.43;2.88;;;21.00;1.00;;;;;;5117995;28;20216;-76
2023/05/31 09:19:03;;;;;;;6.25;2.88;;;21.50;1.00;;;;;;5118436;28;20205;-76
2023/05/31 09:21:30;;;;;;;7.28;2.78;;;21.30;1.00;;;;;;5118539;28;20205;-78
2023/05/31 09:23:59;;;;;;;4.93;2.60;;;21.60;99.90;;;;;;5118459;28;20220;-76
2023/05/31 09:26:28;;;;;;;4.20;2.60;;;21.80;1.00;;;;;;5119074;28;20243;-75
2023/05/31 09:28:56;;;;;;;6.53;2.42;;;22.00;1.00;;;;;;5118742;28;20548;-77
2023/05/31 09:31:23;;;;;;;9.02;2.95;;;22.70;99.90;;;;;;5118538;28;20661;-76
2023/05/31 09:33:53;;;;;;;7.18;2.78;;;22.00;99.90;;;;;;5118171;28;20336;-77
2023/05/31 09:36:25;;;;;;;8.77;3.13;;;21.90;1.00;;;;;;5117983;28;20204;-75
2023/05/31 09:39:00;;;;;;;6.20;3.00;;;22.00;1.00;;;;;;5117634;28;20200;-77
2023/05/31 09:41:28;;;;;;;6.60;3.10;;;21.70;1.00;;;;;;5118193;28;20704;-78
2023/05/31 09:43:56;;;;;;;6.75;2.30;;;22.30;99.90;;;;;;5118707;28;20229;-76
2023/05/31 09:46:24;;;;;;;4.00;2.33;;;21.80;1.00;;;;;;5118173;28;20225;-77
2023/05/31 09:48:59;;;;;;;7.10;2.67;;;21.60;1.00;;;;;;5117905;28;20215;-77
2023/05/31 09:51:26;;;;;;;4.57;2.75;;;21.50;1.00;;;;;;5119117;28;20216;-76
2023/05/31 09:53:55;;;;;;;9.38;3.28;;;21.70;1.00;;;;;;5118954;28;20230;-76
2023/05/31 09:56:23;;;;;;;5.50;2.83;;;21.60;1.00;;;;;;5118686;28;20197;-77
2023/05/31 09:58:50;;;;;;;5.93;2.67;;;22.20;1.00;;;;;;5119045;28;20200;-77
2023/05/31 10:01:19;;;;;;;4.95;2.47;;;22.80;99.90;;;;;;5118453;28;20209;-76
2023/05/31 10:03:48;;;;;;;8.48;2.80;;;22.20;1.00;;;;;;5117471;28;20696;-76
2023/05/31 10:06:17;;;;;;;5.10;2.45;;;22.30;99.90;;;;;;5117904;28;20714;-77
2023/05/31 10:08:45;;;;;;;6.45;2.88;;;22.00;1.00;;;;;;5119282;28;20201;-76
2023/05/31 10:11:14;;;;;;;6.88;2.67;;;22.70;1.00;;;;;;5119011;28;20208;-77
2023/05/31 10:13:44;;;;;;;3.92;2.75;;;23.00;1.00;;;;;;5117268;28;20221;-77
2023/05/31 10:16:12;;;;;;;8.38;2.72;;;22.60;1.00;;;;;;5117725;28;20205;-78
2023/05/31 10:18:44;;;;;;;5.93;2.67;;;22.80;1.00;;;;;;5118012;28;20201;-77
2023/05/31 10:21:22;;;;;;;6.97;2.83;;;22.80;1.00;;;;;;5118755;28;20256;-79
2023/05/31 10:24:02;;;;;;;7.47;2.97;;;23.00;99.90;;;;;;5119169;28;20224;-77
2023/05/31 10:26:37;;;;;;;8.63;3.13;;;23.30;99.90;;;;;;5119780;28;20295;-78
2023/05/31 10:29:11;;;;;;;5.80;2.50;;;23.30;99.90;;;;;;5119910;28;20180;-78
2023/05/31 10:31:50;;;;;;;6.95;2.70;;;23.80;99.90;;;;;;5119744;28;20195;-78
2023/05/31 10:34:22;;;;;;;3.25;2.33;;;23.60;1.00;;;;;;5119050;28;20197;-77
2023/05/31 10:36:50;;;;;;;5.13;2.10;;;24.10;1.00;;;;;;5119263;28;20582;-76
2023/05/31 10:39:25;;;;;;;6.18;2.30;;;24.00;1.00;;;;;;5118094;28;20239;-78
2023/05/31 10:42:03;;;;;;;4.32;2.33;;;23.40;1.00;;;;;;5117577;28;20204;-78
2023/05/31 10:44:40;;;;;;;4.53;2.55;;;22.90;1.00;;;;;;5117863;28;20204;-78
2023/05/31 10:47:10;;;;;;;5.43;2.72;;;22.70;1.00;;;;;;5118740;28;20629;-78
2023/05/31 10:49:40;;;;;;;5.68;2.58;;;23.10;1.00;;;;;;5118932;28;20286;-78
2023/05/31 10:52:09;;;;;;;5.00;2.63;;;23.40;99.90;;;;;;5118083;28;20238;-78
2023/05/31 10:54:35;;;;;;;7.93;2.67;;;23.60;99.90;;;;;;5118403;28;20207;-76
2023/05/31 10:57:05;;;;;;;7.75;2.50;;;23.60;99.90;;;;;;5117274;28;20240;-78
2023/05/31 10:59:42;;;;;;;5.43;2.83;;;23.00;33.60;;;;;;5117612;28;20211;-76
2023/05/31 11:02:11;;;;;;;2.85;2.38;;;23.10;99.90;;;;;;5117022;28;20220;-77
2023/05/31 11:04:39;;;;;;;6.70;2.30;;;23.00;99.90;;;;;;5116458;28;20209;-77
2023/05/31 11:07:17;;;;;;;5.63;2.72;;;22.80;99.90;;;;;;5117202;28;20228;-76
2023/05/31 11:09:56;;;;;;;3.55;2.10;;;23.10;1.00;;;;;;5116425;28;20602;-77
2023/05/31 11:12:33;;;;;;;3.95;2.30;;;23.20;99.90;;;;;;5117378;28;20252;-76
2023/05/31 11:15:00;;;;;;;3.70;2.58;;;22.80;1.00;;;;;;5119538;28;20223;-78
2023/05/31 11:17:27;;;;;;;6.75;2.72;;;23.50;99.90;;;;;;5121297;28;20200;-76
2023/05/31 11:19:56;;;;;;;5.07;2.60;;;23.20;99.90;;;;;;5121228;28;20687;-77
2023/05/31 11:22:27;;;;;;;4.30;2.45;;;22.90;99.90;;;;;;5120970;28;20240;-76
2023/05/31 11:24:55;;;;;;;6.47;3.00;;;23.20;1.00;;;;;;5122074;28;20200;-77
2023/05/31 11:27:23;;;;;;;6.07;3.45;;;23.50;1.00;;;;;;5121476;28;20672;-76
2023/05/31 11:29:57;;;;;;;3.45;2.30;;;23.30;1.00;;;;;;5121160;28;20213;-75
2023/05/31 11:32:55;;;;;;;5.32;2.30;;;23.10;1.00;;;;;;5120327;28;20224;-78
2023/05/31 11:35:25;;;;;;;8.65;2.90;;;23.00;99.90;;;;;;5120715;28;20286;-76
2023/05/31 11:38:04;;;;;;;5.10;2.88;;;23.40;1.00;;;;;;5120784;28;20603;-75
2023/05/31 11:40:32;;;;;;;7.15;2.50;;;23.50;1.00;;;;;;5120773;28;20234;-77
2023/05/31 11:43:11;;;;;;;4.35;2.60;;;23.30;1.00;;;;;;5120587;28;20320;-77
2023/05/31 11:45:44;;;;;;;7.90;2.60;;;23.40;1.00;;;;;;5120044;28;20688;-76
2023/05/31 11:48:31;;;;;;;5.55;2.25;;;23.30;99.90;;;;;;5119951;28;20212;-78
2023/05/31 11:51:00;;;;;;;6.97;3.05;;;23.20;1.00;;;;;;5118980;28;20367;-77
2023/05/31 11:53:28;;;;;;;7.35;2.90;;;23.20;99.90;;;;;;5119115;28;20263;-77
2023/05/31 11:55:55;;;;;;;7.63;2.60;;;23.20;1.00;;;;;;5120058;28;20201;-77
2023/05/31 11:58:22;;;;;;;4.45;2.40;;;23.50;1.00;;;;;;5119018;28;20201;-78
2023/05/31 12:00:50;;;;;;;4.68;2.17;;;23.00;1.00;;;;;;5118820;28;20295;-76
2023/05/31 12:03:19;;;;;;;3.33;2.05;;;23.30;99.90;;;;;;5119074;28;20227;-78
2023/05/31 12:05:51;;;;;;;5.68;2.50;;;23.50;1.00;;;;;;5120861;28;20311;-78
2023/05/31 12:08:19;;;;;;;4.20;2.50;;;23.80;99.90;;;;;;5121572;28;20193;-78
2023/05/31 12:10:46;;;;;;;4.10;2.20;;;23.80;26.40;;;;;;5121629;28;20207;-79
2023/05/31 12:13:17;;;;;;;3.70;2.30;;;23.80;1.00;;;;;;5120436;28;20225;-77
2023/05/31 12:15:51;;;;;;;4.30;2.10;;;23.40;99.90;;;;;;5119571;28;20240;-76
2023/05/31 12:18:17;;;;;;;5.82;2.42;;;22.90;1.00;;;;;;5119160;28;20195;-75
2023/05/31 12:20:44;;;;;;;3.75;2.08;;;23.00;99.90;;;;;;5119577;28;20556;-79
2023/05/31 12:23:13;;;;;;;3.92;2.05;;;22.90;99.90;;;;;;5119031;28;20217;-76
2023/05/31 12:25:46;;;;;;;5.47;2.45;;;22.70;99.90;;;;;;5118623;28;20225;-78
2023/05/31 12:28:13;;;;;;;4.15;2.40;;;22.80;1.00;;;;;;5118783;28;20484;-78
2023/05/31 12:30:44;;;;;;;2.55;2.15;;;23.00;1.00;;;;;;5118676;28;20212;-77
2023/05/31 12:33:12;;;;;;;4.30;2.30;;;23.20;1.00;;;;;;5118431;28;20221;-78
2023/05/31 12:35:42;;;;;;;6.43;2.88;;;23.60;99.90;;;;;;5118650;28;20212;-79
2023/05/31 12:38:10;;;;;;;6.03;2.20;;;23.70;99.90;;;;;;5118526;28;20200;-76
2023/05/31 12:40:41;;;;;;;2.92;1.80;;;23.30;44.20;;;;;;5118567;28;20295;-76
2023/05/31 12:43:12;;;;;;;5.38;2.25;;;23.50;99.90;;;;;;5119394;28;20228;-76
2023/05/31 12:45:40;;;;;;;3.03;2.03;;;23.50;1.00;;;;;;5121132;28;20225;-76
2023/05/31 12:48:09;;;;;;;2.90;2.10;;;23.50;1.00;;;;;;5120467;28;20623;-76
2023/05/31 12:50:36;;;;;;;4.78;2.42;;;24.10;99.90;;;;;;5120974;28;20200;-76